Sterling, Idaho
Current Conditions -  °F | °C
As of 1:53 PM on Friday 28 Nov 2014 (Local Time) from KPIH Reporting Station
Clear Clear  
Wind Chill: 15°   Ceiling: Unl
Heat Index: 15°   Visibility: 10mi
Dew Point: -7°   Wind: 16mph
Humidity: 21%   Direction: 190°S
Pressure: 29.82"   Gusts: NA
Location:  43.1849°N, 112.825°W
Report Text: KPIH 282053Z 19014KT 10SM CLR 15/M07 A2982 RMK AO2 SLP079 T01501072 56025
Loading
Personal Weather Stations






























Interactive Weather Map New forecast layout! Learn more

10-Day Weather Forecast

Advertisements
Track Severe Weather on mobile